Time;durP1;ratioP1;P1;durP2;ratioP2;P2;SDS_P1;SDS_P2;PMS_P1;PMS_P2;Temp;Humidity;BMP_temperature;BMP_pressure;BME280_temperature;BME280_humidity;BME280_pressure;Samples;Min_cycle;Max_cycle;Signal;HPM_P1;HPM_P2
2022/12/05 00:00:12;;;;;;;30.00;16.03;;;2.90;99.90;;;;;;5090805;28;20185;-60
2022/12/05 00:02:38;;;;;;;41.17;18.70;;;2.90;99.90;;;;;;5087308;28;20189;-60
2022/12/05 00:05:04;;;;;;;35.07;17.07;;;2.90;99.90;;;;;;5090982;28;20185;-60
2022/12/05 00:07:29;;;;;;;31.97;17.37;;;2.90;99.90;;;;;;5092462;28;20591;-60
2022/12/05 00:09:55;;;;;;;32.93;16.17;;;3.20;99.90;;;;;;5072628;28;20181;-60
2022/12/05 00:12:20;;;;;;;36.67;16.73;;;3.30;99.90;;;;;;5091320;28;20271;-60
2022/12/05 00:14:46;;;;;;;42.40;19.07;;;3.00;99.90;;;;;;5092314;28;20283;-60
2022/12/05 00:17:12;;;;;;;31.40;16.83;;;3.00;99.90;;;;;;5092354;28;20199;-60
2022/12/05 00:19:38;;;;;;;30.63;14.60;;;3.00;99.90;;;;;;5080502;28;20236;-60
2022/12/05 00:22:04;;;;;;;35.23;15.17;;;2.90;99.90;;;;;;5082992;28;20197;-60
2022/12/05 00:24:29;;;;;;;32.40;15.77;;;2.80;99.90;;;;;;5090242;28;20202;-60
2022/12/05 00:26:55;;;;;;;34.53;16.20;;;2.70;99.90;;;;;;5081374;28;20558;-60
2022/12/05 00:29:20;;;;;;;30.23;16.50;;;2.70;99.90;;;;;;5088416;28;20251;-60
2022/12/05 00:31:46;;;;;;;39.27;18.30;;;2.70;99.90;;;;;;5071315;28;20197;-60
2022/12/05 00:34:12;;;;;;;26.13;13.93;;;2.70;99.90;;;;;;5085458;28;20189;-60
2022/12/05 00:36:38;;;;;;;34.60;17.57;;;2.70;99.90;;;;;;5082883;28;20219;-60
2022/12/05 00:39:10;;;;;;;32.57;16.90;;;2.70;99.90;;;;;;5076744;28;20205;-60
2022/12/05 00:41:36;;;;;;;38.37;18.10;;;2.80;99.90;;;;;;5075455;28;20173;-60
2022/12/05 00:44:03;;;;;;;38.97;17.80;;;2.80;99.90;;;;;;5082867;28;20184;-59
2022/12/05 00:46:30;;;;;;;34.17;14.37;;;2.90;99.90;;;;;;5091304;28;20224;-60
2022/12/05 00:48:57;;;;;;;38.33;17.60;;;2.80;99.90;;;;;;5081597;28;20192;-59
2022/12/05 00:51:31;;;;;;;29.20;16.17;;;2.80;99.90;;;;;;5089052;28;20217;-59
2022/12/05 00:54:00;;;;;;;39.67;16.60;;;2.60;99.90;;;;;;5080534;28;20645;-60
2022/12/05 00:56:27;;;;;;;47.40;18.87;;;2.60;99.90;;;;;;5073672;28;20664;-59
2022/12/05 00:58:55;;;;;;;47.90;21.87;;;2.60;99.90;;;;;;5086942;28;20189;-59
2022/12/05 01:01:28;;;;;;;29.53;17.30;;;2.60;99.90;;;;;;5086601;28;20644;-59
2022/12/05 01:03:56;;;;;;;40.73;20.13;;;2.60;99.90;;;;;;5088691;28;20200;-59
2022/12/05 01:06:23;;;;;;;37.00;17.73;;;2.60;99.90;;;;;;5090853;28;20189;-59
2022/12/05 01:08:49;;;;;;;34.90;16.77;;;2.70;99.90;;;;;;5095901;28;20538;-60
2022/12/05 01:11:17;;;;;;;39.57;16.30;;;2.70;99.90;;;;;;5085110;28;20585;-60
2022/12/05 01:13:43;;;;;;;36.40;17.40;;;2.70;99.90;;;;;;5094785;28;20176;-60
2022/12/05 01:16:38;;;;;;;31.50;16.80;;;2.70;99.90;;;;;;5095933;28;20260;-60
2022/12/05 01:19:26;;;;;;;32.23;14.63;;;2.80;99.90;;;;;;5078026;28;20667;-60
2022/12/05 01:21:52;;;;;;;27.77;14.87;;;2.90;99.90;;;;;;5091555;28;20209;-60
2022/12/05 01:24:20;;;;;;;52.73;19.30;;;2.80;99.90;;;;;;5081774;28;20258;-59
2022/12/05 01:26:46;;;;;;;43.30;17.20;;;2.90;99.90;;;;;;5093799;28;20587;-58
2022/12/05 01:29:14;;;;;;;44.87;20.73;;;2.90;99.90;;;;;;5088438;28;20188;-58
2022/12/05 01:31:40;;;;;;;34.30;16.10;;;2.90;99.90;;;;;;5083823;28;20178;-59
2022/12/05 01:34:09;;;;;;;32.97;14.30;;;2.90;99.90;;;;;;5084734;28;20184;-59
2022/12/05 01:36:35;;;;;;;32.43;15.77;;;2.90;99.90;;;;;;5077911;28;20196;-58
2022/12/05 01:39:01;;;;;;;43.73;18.23;;;3.00;99.90;;;;;;5084575;28;20188;-59
2022/12/05 01:41:33;;;;;;;35.33;16.10;;;3.00;99.90;;;;;;5094705;28;20180;-59
2022/12/05 01:44:02;;;;;;;37.50;15.60;;;3.00;99.90;;;;;;5082215;28;20184;-59
2022/12/05 01:46:30;;;;;;;36.60;16.30;;;3.00;99.90;;;;;;5093028;28;20220;-59
2022/12/05 01:49:15;;;;;;;32.83;16.53;;;3.10;99.90;;;;;;5094785;28;20180;-59
2022/12/05 01:51:48;;;;;;;32.17;18.10;;;3.10;99.90;;;;;;5082102;28;20181;-58
2022/12/05 01:54:17;;;;;;;38.27;16.07;;;2.90;99.90;;;;;;5077878;28;20737;-58
2022/12/05 01:56:47;;;;;;;26.37;14.33;;;2.90;99.90;;;;;;5083931;28;20185;-59
2022/12/05 01:59:13;;;;;;;39.47;18.00;;;2.90;99.90;;;;;;5090737;28;20184;-59
2022/12/05 02:01:40;;;;;;;36.97;15.57;;;2.90;99.90;;;;;;5088192;28;20264;-59
2022/12/05 02:04:07;;;;;;;36.93;15.17;;;3.10;99.90;;;;;;5084305;28;20181;-58
2022/12/05 02:06:33;;;;;;;33.00;16.53;;;3.10;99.90;;;;;;5082017;28;20213;-58
2022/12/05 02:08:59;;;;;;;36.47;16.13;;;3.10;99.90;;;;;;5092051;28;20193;-59
2022/12/05 02:11:27;;;;;;;40.87;17.50;;;3.00;99.90;;;;;;5094389;28;20193;-60
2022/12/05 02:14:22;;;;;;;32.10;16.87;;;3.00;99.90;;;;;;5083768;28;20173;-59
2022/12/05 02:17:08;;;;;;;29.40;16.13;;;3.00;99.90;;;;;;5090294;28;20206;-59
2022/12/05 02:20:08;;;;;;;39.53;18.43;;;3.10;99.90;;;;;;5086762;28;20693;-59
2022/12/05 02:22:34;;;;;;;25.13;13.47;;;3.00;99.90;;;;;;5093680;28;20279;-59
2022/12/05 02:25:32;;;;;;;31.17;15.83;;;3.10;99.90;;;;;;5079725;28;20322;-60
2022/12/05 02:28:19;;;;;;;34.07;17.67;;;3.10;99.90;;;;;;5087382;28;20246;-60
2022/12/05 02:31:04;;;;;;;28.63;16.20;;;3.00;99.90;;;;;;5080709;28;20180;-59
2022/12/05 02:33:52;;;;;;;28.63;15.67;;;2.90;99.90;;;;;;5088917;28;20259;-60
2022/12/05 02:36:31;;;;;;;35.37;17.60;;;2.90;99.90;;;;;;5093820;28;20180;-60
2022/12/05 02:39:15;;;;;;;41.17;16.33;;;3.00;99.90;;;;;;5081981;28;20181;-59
2022/12/05 02:42:01;;;;;;;31.03;17.70;;;3.00;99.90;;;;;;5094240;28;20185;-60
2022/12/05 02:44:37;;;;;;;36.40;17.73;;;3.00;99.90;;;;;;5087981;28;20181;-59
2022/12/05 02:47:05;;;;;;;32.33;15.33;;;3.00;99.90;;;;;;5090019;28;20290;-59
2022/12/05 02:49:34;;;;;;;36.70;18.10;;;3.40;99.90;;;;;;5091731;28;20181;-60
2022/12/05 02:52:03;;;;;;;35.07;18.97;;;3.30;99.90;;;;;;5085805;28;20514;-59
2022/12/05 02:54:34;;;;;;;33.50;16.67;;;3.10;99.90;;;;;;5091963;28;20181;-59
2022/12/05 02:57:00;;;;;;;38.50;15.53;;;3.00;99.90;;;;;;5093906;28;20185;-59
2022/12/05 02:59:26;;;;;;;39.50;16.40;;;3.30;99.90;;;;;;5086393;28;20196;-60
2022/12/05 03:01:52;;;;;;;33.23;15.80;;;3.20;99.90;;;;;;5092940;28;20271;-60
2022/12/05 03:04:20;;;;;;;28.20;16.80;;;3.10;99.90;;;;;;5089075;28;20271;-60
2022/12/05 03:06:56;;;;;;;37.90;15.93;;;3.10;99.90;;;;;;5105251;28;20695;-60
2022/12/05 03:09:42;;;;;;;36.23;16.00;;;3.30;99.90;;;;;;5086933;28;20622;-60
2022/12/05 03:12:19;;;;;;;33.80;16.30;;;3.40;99.90;;;;;;5086132;28;20554;-60
2022/12/05 03:14:55;;;;;;;33.50;18.03;;;3.40;99.90;;;;;;5086924;28;20196;-60
2022/12/05 03:17:25;;;;;;;37.53;16.73;;;3.40;99.90;;;;;;5090145;28;20640;-60
2022/12/05 03:20:02;;;;;;;43.13;16.67;;;3.40;99.90;;;;;;5082557;28;20215;-60
2022/12/05 03:22:39;;;;;;;39.17;16.87;;;3.60;99.90;;;;;;5092270;28;20199;-60
2022/12/05 03:25:06;;;;;;;37.20;17.50;;;3.50;99.90;;;;;;5085099;28;20195;-60
2022/12/05 03:27:52;;;;;;;35.37;17.10;;;3.40;99.90;;;;;;5087863;28;20224;-60
2022/12/05 03:30:21;;;;;;;38.53;16.83;;;3.50;99.90;;;;;;5092114;28;20184;-60
2022/12/05 03:33:05;;;;;;;36.87;16.03;;;3.50;99.90;;;;;;5093147;28;20195;-60
2022/12/05 03:36:03;;;;;;;33.00;15.83;;;3.30;99.90;;;;;;5082895;28;20277;-60
2022/12/05 03:38:44;;;;;;;33.17;14.67;;;3.50;99.90;;;;;;5092501;28;20271;-60
2022/12/05 03:41:22;;;;;;;39.93;15.83;;;3.50;99.90;;;;;;5080754;28;20589;-61
2022/12/05 03:44:04;;;;;;;29.40;16.30;;;3.30;99.90;;;;;;5092367;28;20604;-60
2022/12/05 03:46:39;;;;;;;35.73;18.07;;;3.60;99.90;;;;;;5092785;28;20212;-60
2022/12/05 03:49:36;;;;;;;41.53;17.20;;;3.50;99.90;;;;;;5092537;28;20216;-60
2022/12/05 03:52:14;;;;;;;38.20;15.57;;;3.60;99.90;;;;;;5081206;28;20213;-60
2022/12/05 03:54:45;;;;;;;31.10;15.77;;;3.40;99.90;;;;;;5085220;28;20176;-60
2022/12/05 03:57:16;;;;;;;34.00;16.30;;;3.20;99.90;;;;;;5091702;28;20189;-60
2022/12/05 03:59:56;;;;;;;35.50;15.97;;;3.20;99.90;;;;;;5091600;28;20227;-58
2022/12/05 04:02:41;;;;;;;30.83;15.13;;;3.00;99.90;;;;;;5091184;28;20197;-58
2022/12/05 04:05:43;;;;;;;29.47;16.77;;;3.00;99.90;;;;;;5081480;28;20196;-58
2022/12/05 04:08:35;;;;;;;28.10;14.50;;;3.10;99.90;;;;;;5068057;28;20269;-59
2022/12/05 04:11:06;;;;;;;33.83;16.30;;;3.10;99.90;;;;;;5083989;28;20662;-59
2022/12/05 04:13:37;;;;;;;26.40;13.60;;;3.10;99.90;;;;;;5092583;28;20173;-59
2022/12/05 04:19:24;;;;;;;31.87;15.70;;;3.20;99.90;;;;;;5049704;28;20203;-58
2022/12/05 04:21:53;;;;;;;32.70;16.93;;;3.10;99.90;;;;;;5084644;28;20200;-59
2022/12/05 04:27:16;;;;;;;34.87;15.43;;;3.00;99.90;;;;;;5087226;28;20587;-59
2022/12/05 04:29:51;;;;;;;32.53;14.97;;;3.00;99.90;;;;;;5086604;28;20549;-61
2022/12/05 04:32:19;;;;;;;35.37;17.67;;;3.10;99.90;;;;;;5088196;28;20180;-59
2022/12/05 04:34:53;;;;;;;36.07;15.83;;;3.10;99.90;;;;;;5092326;28;20667;-59
2022/12/05 04:37:22;;;;;;;24.63;13.83;;;3.00;99.90;;;;;;5088512;28;20623;-58
2022/12/05 04:39:54;;;;;;;35.97;14.77;;;3.00;99.90;;;;;;5091910;28;20195;-59
2022/12/05 04:42:23;;;;;;;28.93;16.67;;;3.00;99.90;;;;;;5096269;28;20268;-59
2022/12/05 04:44:53;;;;;;;37.10;17.50;;;3.00;99.90;;;;;;5096018;28;20267;-59
2022/12/05 04:47:23;;;;;;;33.83;15.40;;;3.00;99.90;;;;;;5095293;28;20208;-59
2022/12/05 04:49:50;;;;;;;27.00;14.23;;;3.10;99.90;;;;;;5091440;28;20184;-59
2022/12/05 04:52:16;;;;;;;27.27;15.77;;;3.20;99.90;;;;;;5095545;28;20208;-59
2022/12/05 04:55:18;;;;;;;29.97;15.13;;;3.10;99.90;;;;;;5093167;28;20220;-59
2022/12/05 04:58:07;;;;;;;36.93;16.63;;;3.10;99.90;;;;;;5092993;28;20709;-59
2022/12/05 05:00:55;;;;;;;24.83;14.37;;;3.00;99.90;;;;;;5095444;28;20185;-60
2022/12/05 05:03:25;;;;;;;42.97;18.47;;;3.10;99.90;;;;;;5087246;28;20190;-59
2022/12/05 05:05:54;;;;;;;34.47;15.47;;;3.10;99.90;;;;;;5087132;28;20180;-59
2022/12/05 05:08:23;;;;;;;35.73;15.57;;;3.20;99.90;;;;;;5095850;28;20578;-60
2022/12/05 05:11:04;;;;;;;25.27;15.50;;;3.20;99.90;;;;;;5085773;28;20219;-59
2022/12/05 05:13:29;;;;;;;36.00;16.17;;;3.20;99.90;;;;;;5095537;28;20635;-59
2022/12/05 05:15:55;;;;;;;27.90;13.53;;;3.20;99.90;;;;;;5089934;28;20193;-61
2022/12/05 05:18:21;;;;;;;30.37;16.50;;;3.30;99.90;;;;;;5083316;28;20189;-59
2022/12/05 05:20:46;;;;;;;40.43;16.97;;;3.30;99.90;;;;;;5091078;28;20188;-59
2022/12/05 05:23:13;;;;;;;41.90;16.97;;;3.20;99.90;;;;;;5092394;28;20541;-61
2022/12/05 05:25:39;;;;;;;46.87;16.00;;;3.20;99.90;;;;;;5093197;28;20193;-59
2022/12/05 05:28:04;;;;;;;38.80;18.83;;;3.40;99.90;;;;;;5094443;28;20227;-59
2022/12/05 05:30:30;;;;;;;37.93;15.67;;;3.60;99.90;;;;;;5094444;28;20204;-59
2022/12/05 05:32:58;;;;;;;32.70;16.03;;;3.50;99.90;;;;;;5094920;28;20289;-59
2022/12/05 05:35:24;;;;;;;37.67;19.20;;;3.50;99.90;;;;;;5095904;28;20181;-59
2022/12/05 05:37:50;;;;;;;46.40;17.23;;;3.40;99.90;;;;;;5089931;28;20194;-59
2022/12/05 05:40:16;;;;;;;37.03;17.53;;;3.50;99.90;;;;;;5095405;28;20587;-59
2022/12/05 05:42:46;;;;;;;31.63;15.70;;;3.40;99.90;;;;;;5094576;28;20211;-59
2022/12/05 05:45:14;;;;;;;41.67;16.87;;;3.30;99.90;;;;;;5093539;28;20180;-58
2022/12/05 05:47:40;;;;;;;42.20;18.87;;;3.30;99.90;;;;;;5089092;28;20205;-59
2022/12/05 05:50:06;;;;;;;38.83;17.30;;;3.30;99.90;;;;;;5085940;28;20237;-59
2022/12/05 05:52:33;;;;;;;32.83;15.63;;;3.30;99.90;;;;;;5087461;28;20215;-59
2022/12/05 05:55:00;;;;;;;34.50;15.73;;;3.30;99.90;;;;;;5088777;28;20193;-59
2022/12/05 05:57:25;;;;;;;35.43;16.43;;;3.30;99.90;;;;;;5079413;28;20249;-59
2022/12/05 05:59:51;;;;;;;38.37;18.10;;;3.40;99.90;;;;;;5093190;28;20180;-59
2022/12/05 06:02:17;;;;;;;36.17;16.67;;;3.60;99.90;;;;;;5094358;28;20192;-59
2022/12/05 06:04:42;;;;;;;33.23;15.90;;;3.80;99.90;;;;;;5092859;28;20275;-59
2022/12/05 06:07:08;;;;;;;31.67;15.70;;;3.80;99.90;;;;;;5093488;28;20303;-60
2022/12/05 06:09:34;;;;;;;34.80;16.03;;;3.70;99.90;;;;;;5092954;28;20188;-59
2022/12/05 06:11:59;;;;;;;40.27;16.67;;;3.70;99.90;;;;;;5094925;28;20560;-60
2022/12/05 06:14:25;;;;;;;36.47;17.57;;;3.50;99.90;;;;;;5092751;28;20667;-59
2022/12/05 06:16:51;;;;;;;40.90;18.43;;;3.60;99.90;;;;;;5083543;28;20199;-59
2022/12/05 06:19:16;;;;;;;34.53;17.47;;;3.50;99.90;;;;;;5095140;28;20543;-60
2022/12/05 06:21:42;;;;;;;36.77;16.27;;;3.50;99.90;;;;;;5081047;28;20605;-59
2022/12/05 06:24:08;;;;;;;38.33;16.30;;;3.50;99.90;;;;;;5088279;28;20189;-59
2022/12/05 06:26:33;;;;;;;34.53;16.07;;;3.60;99.90;;;;;;5093144;28;20195;-58
2022/12/05 06:28:59;;;;;;;33.43;14.60;;;3.70;99.90;;;;;;5093179;28;20185;-59
2022/12/05 06:31:30;;;;;;;33.77;16.80;;;3.70;99.90;;;;;;5086321;28;20188;-59
2022/12/05 06:34:02;;;;;;;36.93;17.37;;;3.80;99.90;;;;;;5094404;28;20192;-59
2022/12/05 06:36:28;;;;;;;29.97;14.73;;;3.80;99.90;;;;;;5087995;28;21340;-63
2022/12/05 06:38:56;;;;;;;30.47;15.57;;;3.80;99.90;;;;;;5087448;28;20643;-60
2022/12/05 06:41:23;;;;;;;34.13;17.17;;;3.80;99.90;;;;;;5094667;28;20234;-60
2022/12/05 06:43:52;;;;;;;34.50;15.07;;;3.70;99.90;;;;;;5092662;28;20242;-59
2022/12/05 06:46:19;;;;;;;37.13;18.33;;;3.80;99.90;;;;;;5082114;28;20188;-59
2022/12/05 06:48:45;;;;;;;31.83;15.83;;;3.60;99.90;;;;;;5093389;28;20283;-60
2022/12/05 06:51:12;;;;;;;34.97;14.77;;;3.70;99.90;;;;;;5092203;28;20706;-60
2022/12/05 06:53:38;;;;;;;31.40;16.10;;;3.60;99.90;;;;;;5087887;28;20196;-60
2022/12/05 06:56:07;;;;;;;31.60;15.67;;;3.60;99.90;;;;;;5090717;28;20185;-60
2022/12/05 06:58:33;;;;;;;33.43;16.93;;;3.60;99.90;;;;;;5093549;28;20199;-61
2022/12/05 07:03:47;;;;;;;35.77;17.03;;;3.70;99.90;;;;;;5093153;28;20219;-61
2022/12/05 07:06:13;;;;;;;42.70;17.57;;;3.80;99.90;;;;;;5091650;28;20189;-61
2022/12/05 07:08:40;;;;;;;29.20;15.53;;;3.70;99.90;;;;;;5093178;28;20228;-60
2022/12/05 07:11:06;;;;;;;34.93;17.80;;;3.80;99.90;;;;;;5092728;28;20181;-60
2022/12/05 07:13:32;;;;;;;40.50;17.53;;;3.80;99.90;;;;;;5093114;28;20177;-62
2022/12/05 07:15:59;;;;;;;39.03;17.53;;;3.80;99.90;;;;;;5087264;28;20696;-60
2022/12/05 07:18:25;;;;;;;38.80;16.80;;;3.80;99.90;;;;;;5080862;28;20446;-60
2022/12/05 07:21:02;;;;;;;37.73;16.47;;;3.70;99.90;;;;;;5092406;28;20203;-60
2022/12/05 07:23:28;;;;;;;29.97;14.43;;;3.70;99.90;;;;;;5091647;28;20185;-60
2022/12/05 07:25:54;;;;;;;31.50;17.07;;;3.70;99.90;;;;;;5089237;28;20196;-60
2022/12/05 07:28:20;;;;;;;31.20;16.37;;;3.60;99.90;;;;;;5091984;28;20275;-60
2022/12/05 07:30:46;;;;;;;38.40;17.27;;;3.80;99.90;;;;;;5091346;28;20180;-61
2022/12/05 07:33:12;;;;;;;33.40;17.40;;;3.90;99.90;;;;;;5087146;28;20585;-61
2022/12/05 07:35:37;;;;;;;39.90;17.47;;;4.00;99.90;;;;;;5083795;28;20181;-60
2022/12/05 07:38:03;;;;;;;32.20;15.83;;;4.00;99.90;;;;;;5089282;28;20211;-60
2022/12/05 07:40:28;;;;;;;40.37;17.47;;;4.00;99.90;;;;;;5093060;28;20188;-59
2022/12/05 07:42:54;;;;;;;31.83;17.30;;;3.90;99.90;;;;;;5092687;28;20354;-60
2022/12/05 07:45:20;;;;;;;37.00;14.07;;;4.00;99.90;;;;;;5090668;28;20185;-59
2022/12/05 07:47:46;;;;;;;35.73;15.30;;;3.80;99.90;;;;;;5092837;28;20208;-59
2022/12/05 07:50:12;;;;;;;33.97;17.70;;;3.90;99.90;;;;;;5092927;28;20731;-59
2022/12/05 07:52:38;;;;;;;37.20;15.57;;;3.90;99.90;;;;;;5090349;28;20188;-59
2022/12/05 07:55:04;;;;;;;35.10;16.13;;;3.80;99.90;;;;;;5083046;28;20188;-58
2022/12/05 07:57:30;;;;;;;31.13;13.27;;;3.70;99.90;;;;;;5073235;28;20196;-59
2022/12/05 07:59:57;;;;;;;38.60;15.67;;;3.70;99.90;;;;;;5083778;28;20261;-59
2022/12/05 08:02:23;;;;;;;29.10;14.57;;;3.80;99.90;;;;;;5090391;28;20734;-59
2022/12/05 08:04:48;;;;;;;32.63;15.10;;;3.90;99.90;;;;;;5090459;28;20185;-58
2022/12/05 08:07:14;;;;;;;31.23;14.20;;;4.00;99.90;;;;;;5078854;28;20249;-58
2022/12/05 08:09:40;;;;;;;39.57;17.50;;;4.00;99.90;;;;;;5087819;28;20193;-59
2022/12/05 08:12:05;;;;;;;31.93;15.77;;;4.20;99.90;;;;;;5088857;28;20189;-60
2022/12/05 08:14:31;;;;;;;29.77;14.83;;;4.30;99.90;;;;;;5076151;28;20189;-59
2022/12/05 08:16:57;;;;;;;27.23;12.87;;;4.30;99.90;;;;;;5091552;28;20280;-59
2022/12/05 08:19:22;;;;;;;29.73;15.13;;;4.20;99.90;;;;;;5092204;28;20756;-59
2022/12/05 08:21:48;;;;;;;31.77;16.40;;;4.10;99.90;;;;;;5077351;28;20192;-59
2022/12/05 08:24:14;;;;;;;31.07;15.90;;;4.10;99.90;;;;;;5090728;28;20185;-60
2022/12/05 08:26:39;;;;;;;31.93;13.37;;;4.10;99.90;;;;;;5090523;28;20674;-59
2022/12/05 08:29:18;;;;;;;28.63;14.60;;;4.20;99.90;;;;;;5074191;28;20204;-59
2022/12/05 08:31:47;;;;;;;32.67;14.07;;;4.50;99.90;;;;;;5089676;28;20177;-60
2022/12/05 08:34:14;;;;;;;34.73;15.30;;;4.30;99.90;;;;;;5091447;28;20187;-59
2022/12/05 08:36:40;;;;;;;30.50;14.57;;;4.10;99.90;;;;;;5091420;28;20188;-59
2022/12/05 08:39:08;;;;;;;27.13;13.60;;;4.10;99.90;;;;;;5086930;28;20265;-59
2022/12/05 08:41:34;;;;;;;25.43;13.63;;;4.20;99.90;;;;;;5092204;28;20184;-59
2022/12/05 08:44:04;;;;;;;34.43;15.50;;;4.20;99.90;;;;;;5091089;28;20560;-59
2022/12/05 08:46:34;;;;;;;26.50;12.27;;;4.30;99.90;;;;;;5092257;28;20184;-59
2022/12/05 08:49:02;;;;;;;22.27;11.70;;;4.30;99.90;;;;;;5091846;28;20184;-59
2022/12/05 08:51:28;;;;;;;27.37;13.17;;;4.20;99.90;;;;;;5091244;28;20645;-60
2022/12/05 08:53:55;;;;;;;22.10;12.83;;;4.30;99.90;;;;;;5091776;28;20180;-59
2022/12/05 08:56:21;;;;;;;27.73;16.37;;;4.40;99.90;;;;;;5089621;28;20592;-59
2022/12/05 08:58:47;;;;;;;32.33;13.03;;;4.50;99.90;;;;;;5083791;28;20176;-59
2022/12/05 09:01:16;;;;;;;28.70;15.57;;;4.40;99.90;;;;;;5087921;28;20669;-59
2022/12/05 09:03:43;;;;;;;22.43;12.77;;;4.30;99.90;;;;;;5077778;28;20184;-60
2022/12/05 09:06:10;;;;;;;29.50;14.63;;;4.30;99.90;;;;;;5082351;28;20249;-59
2022/12/05 09:08:36;;;;;;;22.23;12.73;;;4.30;99.90;;;;;;5086412;28;20295;-60
2022/12/05 09:11:07;;;;;;;27.10;13.10;;;4.40;99.90;;;;;;5086366;28;20225;-60
2022/12/05 09:13:33;;;;;;;27.53;14.83;;;4.40;99.90;;;;;;5077965;28;20204;-60
2022/12/05 09:16:03;;;;;;;24.63;11.93;;;4.60;99.90;;;;;;5086212;28;20192;-59
2022/12/05 09:18:29;;;;;;;31.77;14.23;;;4.60;99.90;;;;;;5079249;28;20195;-59
2022/12/05 09:20:55;;;;;;;23.37;12.53;;;4.70;99.90;;;;;;5078076;28;20185;-59
2022/12/05 09:23:20;;;;;;;28.80;14.23;;;4.80;99.90;;;;;;5080743;28;20585;-59
2022/12/05 09:25:55;;;;;;;27.27;13.50;;;4.90;99.90;;;;;;5089518;28;20212;-59
2022/12/05 09:28:20;;;;;;;25.97;12.30;;;4.90;99.90;;;;;;5087718;28;20212;-59
2022/12/05 09:31:00;;;;;;;25.43;14.07;;;4.90;99.90;;;;;;5075994;28;20220;-59
2022/12/05 09:33:26;;;;;;;23.60;12.17;;;4.90;99.90;;;;;;5088156;28;20195;-60
2022/12/05 09:35:52;;;;;;;28.47;13.73;;;4.60;99.90;;;;;;5090443;28;20267;-59
2022/12/05 09:38:17;;;;;;;21.27;12.00;;;4.90;99.90;;;;;;5084571;28;20279;-60
2022/12/05 09:40:43;;;;;;;27.47;12.87;;;4.90;99.90;;;;;;5088843;28;20185;-60
2022/12/05 09:43:25;;;;;;;23.63;12.57;;;4.80;99.90;;;;;;5088678;28;20192;-60
2022/12/05 09:46:10;;;;;;;29.10;13.07;;;4.50;99.90;;;;;;5084619;28;20246;-60
2022/12/05 09:48:39;;;;;;;23.03;12.40;;;4.70;99.90;;;;;;5090322;28;20223;-59
2022/12/05 09:51:08;;;;;;;29.63;15.03;;;4.70;99.90;;;;;;5086839;28;20667;-60
2022/12/05 09:53:41;;;;;;;22.47;13.10;;;4.80;99.90;;;;;;5090858;28;20643;-60
2022/12/05 09:56:28;;;;;;;20.47;11.93;;;4.80;99.90;;;;;;5089859;28;20188;-60
2022/12/05 09:58:59;;;;;;;25.73;13.30;;;4.90;99.90;;;;;;5091929;28;20189;-59
2022/12/05 10:01:44;;;;;;;24.67;12.97;;;5.00;99.90;;;;;;5091125;28;20310;-60
2022/12/05 10:04:36;;;;;;;25.80;12.63;;;5.00;99.90;;;;;;5091508;28;20271;-59
2022/12/05 10:07:10;;;;;;;20.57;11.33;;;4.90;99.90;;;;;;5092581;28;20991;-59
2022/12/05 10:09:58;;;;;;;27.73;13.17;;;4.90;99.90;;;;;;5092082;28;20192;-60
2022/12/05 10:12:50;;;;;;;22.73;12.00;;;4.90;99.90;;;;;;5084500;28;20199;-61
2022/12/05 10:15:29;;;;;;;25.07;11.73;;;5.00;99.90;;;;;;5098698;28;20180;-59
2022/12/05 10:18:03;;;;;;;24.63;12.53;;;5.00;99.90;;;;;;5088821;28;20192;-60
2022/12/05 10:20:39;;;;;;;17.50;11.90;;;5.00;99.90;;;;;;5091949;28;20181;-60
2022/12/05 10:23:13;;;;;;;23.93;13.10;;;5.10;99.90;;;;;;5091787;28;20204;-60
2022/12/05 10:25:40;;;;;;;19.67;12.30;;;5.20;99.90;;;;;;5094486;28;20259;-60
2022/12/05 10:28:19;;;;;;;23.37;12.10;;;5.10;99.90;;;;;;5086118;28;20219;-60
2022/12/05 10:30:47;;;;;;;19.90;10.73;;;5.00;99.90;;;;;;5086060;28;20184;-59
2022/12/05 10:33:18;;;;;;;23.73;11.13;;;5.00;99.90;;;;;;5092720;28;20184;-59
2022/12/05 10:35:44;;;;;;;21.30;12.63;;;4.90;99.90;;;;;;5086897;28;20181;-59
2022/12/05 10:38:24;;;;;;;19.40;10.73;;;4.80;99.90;;;;;;5088412;28;20195;-60
2022/12/05 10:40:53;;;;;;;23.00;13.00;;;4.90;99.90;;;;;;5091718;28;20195;-59
2022/12/05 10:43:28;;;;;;;19.03;11.17;;;4.80;99.90;;;;;;5087182;28;20181;-59
2022/12/05 10:45:55;;;;;;;21.57;11.73;;;4.60;99.90;;;;;;5093534;28;20271;-60
2022/12/05 10:48:21;;;;;;;23.50;11.90;;;4.50;99.90;;;;;;5091543;28;20220;-60
2022/12/05 10:50:59;;;;;;;22.17;11.30;;;4.50;99.90;;;;;;5089556;28;20528;-60
2022/12/05 10:53:34;;;;;;;20.73;11.93;;;4.40;99.90;;;;;;5086697;28;20191;-62
2022/12/05 10:56:00;;;;;;;24.60;11.83;;;4.50;99.90;;;;;;5088399;28;20187;-60
2022/12/05 10:58:28;;;;;;;24.27;14.40;;;4.50;99.90;;;;;;5089553;28;20192;-60
2022/12/05 11:01:06;;;;;;;21.60;12.67;;;4.70;99.90;;;;;;5086625;28;20264;-59
2022/12/05 11:03:35;;;;;;;19.93;13.37;;;4.90;99.90;;;;;;5090100;28;20185;-60
2022/12/05 11:06:14;;;;;;;24.70;12.67;;;4.90;99.90;;;;;;5088251;28;20193;-60
2022/12/05 11:08:40;;;;;;;23.83;11.73;;;4.90;99.90;;;;;;5093208;28;20318;-60
2022/12/05 11:11:13;;;;;;;21.13;12.03;;;4.80;99.90;;;;;;5087228;28;20272;-60
2022/12/05 11:13:57;;;;;;;19.03;11.90;;;4.90;99.90;;;;;;5086282;28;20300;-60
2022/12/05 11:16:35;;;;;;;17.23;9.53;;;5.10;99.90;;;;;;5090194;28;20185;-60
2022/12/05 11:19:32;;;;;;;19.20;9.73;;;5.10;99.90;;;;;;5091426;28;20551;-60
2022/12/05 11:21:59;;;;;;;22.43;12.77;;;4.90;99.90;;;;;;5085037;28;20252;-59
2022/12/05 11:24:33;;;;;;;19.23;10.43;;;4.80;99.90;;;;;;5091604;28;20534;-59
2022/12/05 11:27:19;;;;;;;17.37;10.20;;;4.70;99.90;;;;;;5090385;28;20295;-59
2022/12/05 11:30:24;;;;;;;18.93;10.30;;;4.90;99.90;;;;;;5085883;28;20654;-59
2022/12/05 11:32:50;;;;;;;21.63;10.00;;;4.80;99.90;;;;;;5089766;28;20195;-59
2022/12/05 11:35:24;;;;;;;20.67;11.40;;;4.70;99.90;;;;;;5092072;28;20237;-59
2022/12/05 11:38:01;;;;;;;15.97;9.87;;;4.70;99.90;;;;;;5091813;28;20180;-60
2022/12/05 11:40:46;;;;;;;20.03;11.27;;;4.90;99.90;;;;;;5090583;28;20191;-59
2022/12/05 11:43:39;;;;;;;14.77;10.37;;;4.90;99.90;;;;;;5084329;28;20181;-60
2022/12/05 11:46:13;;;;;;;19.90;11.87;;;5.10;99.90;;;;;;5080630;28;20317;-60
2022/12/05 11:48:52;;;;;;;20.10;10.33;;;5.20;99.90;;;;;;5086811;28;20298;-60
2022/12/05 11:51:21;;;;;;;20.13;12.03;;;5.30;99.90;;;;;;5091715;28;20223;-60
2022/12/05 11:54:16;;;;;;;19.80;10.83;;;5.50;99.90;;;;;;5083183;28;20212;-60
2022/12/05 11:56:55;;;;;;;20.70;10.63;;;5.30;99.90;;;;;;5086384;28;20673;-60
2022/12/05 11:59:44;;;;;;;20.20;12.03;;;5.10;99.90;;;;;;5087213;28;20177;-60
2022/12/05 12:02:38;;;;;;;21.90;11.50;;;5.10;99.90;;;;;;5089632;28;20657;-60
2022/12/05 12:05:27;;;;;;;21.03;10.87;;;5.20;99.90;;;;;;5091032;28;20180;-60
2022/12/05 12:08:20;;;;;;;20.60;12.47;;;5.50;99.90;;;;;;5086420;28;20216;-60
2022/12/05 12:10:53;;;;;;;20.13;11.20;;;5.70;99.90;;;;;;5092280;28;20180;-60
2022/12/05 12:13:48;;;;;;;18.30;11.43;;;5.70;99.90;;;;;;5089536;28;20185;-60
2022/12/05 12:16:30;;;;;;;19.13;12.80;;;5.60;99.90;;;;;;5091465;28;20184;-60
2022/12/05 12:19:01;;;;;;;18.83;11.70;;;5.70;99.90;;;;;;5089942;28;20177;-60
2022/12/05 12:21:35;;;;;;;23.47;13.30;;;5.80;99.90;;;;;;5091897;28;20200;-60
2022/12/05 12:24:17;;;;;;;19.83;12.47;;;5.90;99.90;;;;;;5092018;28;20179;-59
2022/12/05 12:27:15;;;;;;;20.60;10.40;;;5.80;99.90;;;;;;5092304;28;20662;-60
2022/12/05 12:30:00;;;;;;;20.13;11.47;;;5.70;99.90;;;;;;5091003;28;20647;-60
2022/12/05 12:32:31;;;;;;;20.70;11.37;;;5.70;99.90;;;;;;5092100;28;20238;-60
2022/12/05 12:35:07;;;;;;;19.30;11.77;;;6.00;99.90;;;;;;5091929;28;20275;-60
2022/12/05 12:37:47;;;;;;;17.50;11.63;;;5.80;99.90;;;;;;5089978;28;20187;-60
2022/12/05 12:40:44;;;;;;;23.70;11.00;;;5.80;99.90;;;;;;5091813;28;20267;-60
2022/12/05 12:43:52;;;;;;;19.63;11.43;;;5.70;99.90;;;;;;5076059;28;20249;-59
2022/12/05 12:46:41;;;;;;;19.50;10.63;;;5.70;99.90;;;;;;5075688;28;20188;-59
2022/12/05 12:49:35;;;;;;;15.30;10.27;;;5.80;99.90;;;;;;5090857;28;20332;-60
2022/12/05 12:52:08;;;;;;;17.13;10.13;;;5.90;99.90;;;;;;5082974;28;20196;-60
2022/12/05 12:54:40;;;;;;;24.77;11.20;;;5.90;99.90;;;;;;5085877;28;20179;-60
2022/12/05 12:57:23;;;;;;;15.27;10.13;;;5.90;99.90;;;;;;5085627;28;20204;-60
2022/12/05 13:00:12;;;;;;;18.73;11.33;;;5.90;99.90;;;;;;5092103;28;20202;-60
2022/12/05 13:02:49;;;;;;;21.40;11.17;;;6.00;99.90;;;;;;5093283;28;20198;-60
2022/12/05 13:05:27;;;;;;;22.50;12.20;;;6.00;99.90;;;;;;5087922;28;20184;-60
2022/12/05 13:08:14;;;;;;;20.70;12.37;;;6.00;99.90;;;;;;5083431;28;20295;-60
2022/12/05 13:10:46;;;;;;;18.47;10.97;;;6.00;99.90;;;;;;5092570;28;20193;-60
2022/12/05 13:13:26;;;;;;;18.63;10.00;;;5.70;99.90;;;;;;5094082;28;20176;-63